Time;durP1;ratioP1;P1;durP2;ratioP2;P2;SDS_P1;SDS_P2;PMS_P1;PMS_P2;Temp;Humidity;BMP_temperature;BMP_pressure;BME280_temperature;BME280_humidity;BME280_pressure;Samples;Min_cycle;Max_cycle;Signal;HPM_P1;HPM_P2
2022/03/19 00:00:38;;;;;;;28.00;22.83;;;;;;;2.16;100.00;101652.13;4903322;29;20242;-78
2022/03/19 00:03:07;;;;;;;28.90;23.37;;;;;;;2.09;100.00;101656.19;4912264;29;20237;-77
2022/03/19 00:05:34;;;;;;;29.03;23.03;;;;;;;2.04;100.00;101661.00;4906449;29;20243;-77
2022/03/19 00:08:01;;;;;;;28.10;23.40;;;;;;;2.32;100.00;101660.59;4900734;29;20235;-77
2022/03/19 00:10:28;;;;;;;28.80;22.70;;;;;;;2.14;100.00;101668.13;4901415;29;20250;-78
2022/03/19 00:12:55;;;;;;;28.27;23.50;;;;;;;1.87;100.00;101666.72;4912503;29;20606;-77
2022/03/19 00:15:22;;;;;;;31.47;24.13;;;;;;;1.77;100.00;101664.72;4903520;29;20241;-77
2022/03/19 00:17:48;;;;;;;28.90;23.03;;;;;;;1.71;100.00;101672.28;4916153;29;20242;-77
2022/03/19 00:20:15;;;;;;;29.60;23.90;;;;;;;1.63;100.00;101664.91;4902523;29;20306;-77
2022/03/19 00:22:43;;;;;;;26.77;23.57;;;;;;;1.61;100.00;101669.47;4916281;29;20238;-77
2022/03/19 00:25:11;;;;;;;27.40;22.63;;;;;;;1.65;100.00;101670.91;4901595;29;20670;-77
2022/03/19 00:27:40;;;;;;;29.20;23.77;;;;;;;1.63;100.00;101669.38;4905563;29;20262;-77
2022/03/19 00:30:09;;;;;;;27.57;23.23;;;;;;;1.62;100.00;101672.94;4901184;29;20234;-78
2022/03/19 00:32:36;;;;;;;28.70;23.30;;;;;;;1.58;100.00;101669.69;4916352;29;20686;-77
2022/03/19 00:35:04;;;;;;;28.93;24.07;;;;;;;1.57;100.00;101662.72;4901298;29;20335;-78
2022/03/19 00:37:32;;;;;;;27.57;22.83;;;;;;;1.59;100.00;101663.44;4914488;29;20690;-77
2022/03/19 00:39:59;;;;;;;29.27;24.10;;;;;;;1.57;100.00;101654.78;4912072;29;20245;-77
2022/03/19 00:42:26;;;;;;;29.83;24.23;;;;;;;1.55;100.00;101656.69;4909384;29;20332;-77
2022/03/19 00:44:52;;;;;;;29.50;24.40;;;;;;;1.56;100.00;101646.97;4902765;29;20238;-77
2022/03/19 00:47:19;;;;;;;27.23;23.40;;;;;;;1.55;100.00;101655.84;4909996;29;20692;-77
2022/03/19 00:49:46;;;;;;;27.03;23.47;;;;;;;1.51;100.00;101644.66;4908784;29;20234;-77
2022/03/19 00:52:13;;;;;;;28.80;23.67;;;;;;;1.52;100.00;101645.50;4901831;29;20240;-76
2022/03/19 00:54:39;;;;;;;28.23;23.60;;;;;;;1.53;100.00;101636.63;4914506;29;20285;-77
2022/03/19 00:57:06;;;;;;;29.97;23.27;;;;;;;1.56;100.00;101633.75;4904800;29;20236;-77
2022/03/19 00:59:33;;;;;;;29.87;23.40;;;;;;;1.55;100.00;101637.34;4915714;29;20262;-79
2022/03/19 01:02:00;;;;;;;27.00;23.17;;;;;;;1.52;100.00;101635.78;4901982;29;20656;-76
2022/03/19 01:04:27;;;;;;;26.63;22.77;;;;;;;1.49;100.00;101629.91;4914911;29;20701;-75
2022/03/19 01:06:54;;;;;;;27.47;23.13;;;;;;;1.49;100.00;101636.03;4901970;29;20241;-76
2022/03/19 01:09:20;;;;;;;27.10;22.03;;;;;;;1.49;100.00;101640.47;4914980;29;20234;-76
2022/03/19 01:11:48;;;;;;;29.40;23.83;;;;;;;1.47;100.00;101642.38;4915208;29;20290;-76
2022/03/19 01:14:15;;;;;;;28.73;22.60;;;;;;;1.41;100.00;101648.09;4910120;29;20706;-75
2022/03/19 01:16:41;;;;;;;27.57;23.60;;;;;;;1.39;100.00;101639.44;4899834;29;20259;-76
2022/03/19 01:19:08;;;;;;;31.03;23.23;;;;;;;1.42;100.00;101642.72;4913524;29;20233;-76
2022/03/19 01:21:36;;;;;;;28.97;23.20;;;;;;;1.36;100.00;101642.28;4904578;29;20242;-75
2022/03/19 01:24:03;;;;;;;27.63;23.03;;;;;;;1.35;100.00;101640.63;4898480;29;20260;-73
2022/03/19 01:26:30;;;;;;;30.00;22.43;;;;;;;1.36;100.00;101642.28;4907299;29;20267;-73
2022/03/19 01:28:58;;;;;;;27.27;22.87;;;;;;;1.34;100.00;101631.88;4910344;29;20226;-73
2022/03/19 01:31:28;;;;;;;28.03;23.73;;;;;;;1.29;100.00;101629.56;4908238;29;20238;-74
2022/03/19 01:33:55;;;;;;;26.80;22.57;;;;;;;1.27;100.00;101627.97;4902230;29;20659;-76
2022/03/19 01:36:22;;;;;;;28.47;22.93;;;;;;;1.22;100.00;101628.31;4905208;29;20424;-76
2022/03/19 01:38:49;;;;;;;29.77;23.77;;;;;;;1.19;100.00;101625.03;4904935;29;20767;-76
2022/03/19 01:41:15;;;;;;;27.90;23.03;;;;;;;1.17;100.00;101619.03;4914532;29;20269;-76
2022/03/19 01:43:42;;;;;;;29.57;23.23;;;;;;;1.14;100.00;101617.47;4911425;29;20297;-77
2022/03/19 01:46:09;;;;;;;30.73;23.87;;;;;;;1.14;100.00;101622.75;4919535;29;20678;-78
2022/03/19 01:48:36;;;;;;;29.00;23.30;;;;;;;1.08;100.00;101617.88;4913343;29;20236;-79
2022/03/19 01:51:03;;;;;;;28.33;23.73;;;;;;;1.09;100.00;101618.75;4906422;29;20702;-78
2022/03/19 01:53:30;;;;;;;31.67;23.23;;;;;;;1.07;100.00;101613.59;4921090;29;20327;-78
2022/03/19 01:55:57;;;;;;;27.93;23.43;;;;;;;1.02;100.00;101609.59;4910486;29;20757;-77
2022/03/19 01:58:24;;;;;;;29.23;23.70;;;;;;;1.00;100.00;101608.84;4913257;29;20321;-76
2022/03/19 02:00:51;;;;;;;29.73;23.13;;;;;;;0.97;100.00;101606.44;4918271;29;20321;-78
2022/03/19 02:03:18;;;;;;;26.63;22.83;;;;;;;0.94;100.00;101610.13;4915857;29;20221;-76
2022/03/19 02:05:47;;;;;;;30.07;23.80;;;;;;;0.92;100.00;101609.41;4917139;29;20236;-77
2022/03/19 02:08:17;;;;;;;29.43;23.67;;;;;;;0.84;100.00;101606.47;4901071;29;20871;-77
2022/03/19 02:10:44;;;;;;;29.30;23.37;;;;;;;0.76;100.00;101599.09;4909661;29;20364;-76
2022/03/19 02:13:11;;;;;;;26.70;22.23;;;;;;;0.70;100.00;101601.34;4909320;29;20253;-75
2022/03/19 02:15:38;;;;;;;27.97;22.77;;;;;;;0.63;100.00;101608.81;4918050;29;20328;-75
2022/03/19 02:18:05;;;;;;;27.87;23.30;;;;;;;0.62;100.00;101607.13;4897831;29;20246;-76
2022/03/19 02:20:34;;;;;;;26.00;21.63;;;;;;;0.63;100.00;101602.69;4907009;29;20254;-75
2022/03/19 02:25:47;;;;;;;29.20;22.80;;;;;;;0.48;100.00;101590.59;4911367;29;20273;-76
2022/03/19 02:28:14;;;;;;;29.23;23.47;;;;;;;0.39;100.00;101579.75;4916830;29;20226;-76
2022/03/19 02:30:43;;;;;;;30.30;23.80;;;;;;;0.30;100.00;101584.81;4889271;29;20297;-75
2022/03/19 02:33:11;;;;;;;27.63;22.73;;;;;;;0.23;100.00;101587.03;4915382;29;20237;-76
2022/03/19 02:35:37;;;;;;;26.80;22.40;;;;;;;0.17;100.00;101576.06;4917832;29;20721;-77
2022/03/19 02:38:04;;;;;;;29.03;23.87;;;;;;;0.06;100.00;101574.16;4900396;29;20333;-78
2022/03/19 02:40:31;;;;;;;28.27;23.23;;;;;;;-0.06;100.00;101567.94;4896969;29;20288;-77
2022/03/19 02:42:58;;;;;;;31.07;23.37;;;;;;;-0.11;100.00;101571.84;4911509;29;20281;-77
2022/03/19 02:45:25;;;;;;;30.23;24.40;;;;;;;-0.16;100.00;101558.13;4912526;29;20237;-77
2022/03/19 02:47:58;;;;;;;28.77;23.17;;;;;;;-0.16;100.00;101558.97;4904382;29;20258;-77
2022/03/19 02:50:32;;;;;;;30.40;23.67;;;;;;;-0.33;100.00;101561.06;4916472;29;20257;-77
2022/03/19 02:53:00;;;;;;;28.27;23.57;;;;;;;-0.40;100.00;101571.16;4904627;29;20238;-77
2022/03/19 02:55:33;;;;;;;30.67;23.90;;;;;;;-0.45;100.00;101571.47;4917881;29;20226;-77
2022/03/19 02:58:01;;;;;;;31.60;23.20;;;;;;;-0.50;100.00;101568.28;4917319;29;20254;-75
2022/03/19 03:00:28;;;;;;;28.47;23.80;;;;;;;-0.53;100.00;101563.25;4910626;29;20329;-77
2022/03/19 03:02:55;;;;;;;32.23;24.57;;;;;;;-0.57;100.00;101568.81;4904714;29;20639;-77
2022/03/19 03:05:22;;;;;;;32.10;24.40;;;;;;;-0.66;100.00;101574.69;4913208;29;20237;-77
2022/03/19 03:07:49;;;;;;;31.37;25.03;;;;;;;-0.73;100.00;101571.59;4906843;29;20235;-77
2022/03/19 03:10:16;;;;;;;31.40;25.00;;;;;;;-0.73;100.00;101568.13;4914599;29;20260;-77
2022/03/19 03:12:43;;;;;;;31.97;24.57;;;;;;;-0.79;100.00;101569.34;4916278;29;20230;-77
2022/03/19 03:15:10;;;;;;;30.27;23.73;;;;;;;-0.85;100.00;101564.50;4916961;29;20238;-77
2022/03/19 03:17:40;;;;;;;30.20;24.07;;;;;;;-0.88;100.00;101562.06;4904249;29;20312;-77
2022/03/19 03:20:07;;;;;;;31.40;24.17;;;;;;;-0.93;100.00;101558.88;4916929;29;20690;-77
2022/03/19 03:22:36;;;;;;;31.37;24.40;;;;;;;-0.93;100.00;101569.41;4910618;29;20340;-77
2022/03/19 03:25:03;;;;;;;31.30;24.43;;;;;;;-1.00;100.00;101560.22;4911552;29;20598;-77
2022/03/19 03:27:30;;;;;;;30.33;23.57;;;;;;;-1.08;100.00;101562.53;4916786;29;20238;-77
2022/03/19 03:29:57;;;;;;;32.27;25.43;;;;;;;-1.09;100.00;101568.72;4904000;29;20323;-77
2022/03/19 03:32:24;;;;;;;32.57;25.00;;;;;;;-1.22;100.00;101557.28;4916197;29;20562;-76
2022/03/19 03:34:50;;;;;;;31.20;24.10;;;;;;;-1.26;100.00;101561.06;4903962;29;20774;-76
2022/03/19 03:37:18;;;;;;;34.43;25.70;;;;;;;-1.32;100.00;101559.66;4903250;29;20335;-76
2022/03/19 03:39:45;;;;;;;33.27;26.17;;;;;;;-1.35;100.00;101562.47;4907749;29;20305;-76
2022/03/19 03:42:12;;;;;;;34.27;26.87;;;;;;;-1.35;100.00;101552.78;4915660;29;20673;-75
2022/03/19 03:44:41;;;;;;;36.60;27.33;;;;;;;-1.41;100.00;101557.59;4903614;29;20317;-76
2022/03/19 03:47:08;;;;;;;36.60;26.80;;;;;;;-1.39;100.00;101560.97;4910269;29;20244;-75
2022/03/19 03:49:35;;;;;;;34.50;26.33;;;;;;;-1.47;100.00;101561.47;4903407;29;20237;-75
2022/03/19 03:52:02;;;;;;;38.07;27.10;;;;;;;-1.47;100.00;101556.19;4902940;29;20235;-77
2022/03/19 03:54:29;;;;;;;34.63;26.50;;;;;;;-1.54;100.00;101557.50;4911471;29;20245;-77
2022/03/19 03:56:55;;;;;;;35.90;26.57;;;;;;;-1.56;100.00;101555.94;4907301;29;20246;-78
2022/03/19 03:59:23;;;;;;;35.07;26.33;;;;;;;-1.56;100.00;101556.78;4915289;29;20234;-77
2022/03/19 04:01:50;;;;;;;32.97;25.40;;;;;;;-1.62;100.00;101553.69;4893183;29;20255;-77
2022/03/19 04:04:17;;;;;;;35.40;26.30;;;;;;;-1.61;100.00;101558.84;4913373;29;20324;-77
2022/03/19 04:06:43;;;;;;;32.83;25.60;;;;;;;-1.60;100.00;101557.06;4915954;29;20322;-77
2022/03/19 04:09:10;;;;;;;33.73;26.07;;;;;;;-1.55;100.00;101549.75;4903383;29;20282;-77
2022/03/19 04:11:37;;;;;;;37.30;26.80;;;;;;;-1.50;100.00;101552.94;4903371;29;20785;-77
2022/03/19 04:14:03;;;;;;;36.00;25.90;;;;;;;-1.47;100.00;101552.72;4915805;29;20324;-77
2022/03/19 04:16:31;;;;;;;37.57;27.80;;;;;;;-1.41;100.00;101558.47;4915330;29;20245;-77
2022/03/19 04:18:58;;;;;;;32.97;26.93;;;;;;;-1.39;100.00;101546.03;4902948;29;20235;-77
2022/03/19 04:21:25;;;;;;;35.47;27.63;;;;;;;-1.36;100.00;101552.91;4915535;29;20246;-77
2022/03/19 04:23:51;;;;;;;35.43;28.20;;;;;;;-1.31;100.00;101547.34;4915823;29;20686;-77
2022/03/19 04:26:18;;;;;;;35.70;28.87;;;;;;;-1.30;100.00;101544.59;4914856;29;20234;-77
2022/03/19 04:28:44;;;;;;;36.70;29.87;;;;;;;-1.26;100.00;101540.03;4916160;29;20718;-77
2022/03/19 04:31:11;;;;;;;34.03;27.53;;;;;;;-1.24;100.00;101540.75;4915669;29;20650;-76
2022/03/19 04:33:39;;;;;;;35.43;27.37;;;;;;;-1.20;100.00;101552.75;4903137;29;20250;-76
2022/03/19 04:38:51;;;;;;;33.90;25.83;;;;;;;-1.12;100.00;101559.22;4902916;29;20261;-77
2022/03/19 04:41:18;;;;;;;33.50;25.77;;;;;;;-1.10;100.00;101559.97;4914972;29;20659;-76
2022/03/19 04:43:44;;;;;;;31.97;25.07;;;;;;;-1.08;100.00;101562.53;4915751;29;20252;-77
2022/03/19 04:46:11;;;;;;;34.33;26.17;;;;;;;-1.02;100.00;101559.47;4915053;29;20321;-77
2022/03/19 04:48:38;;;;;;;34.30;26.40;;;;;;;-1.01;100.00;101550.63;4915417;29;20302;-77
2022/03/19 04:51:05;;;;;;;36.77;27.47;;;;;;;-0.98;100.00;101551.28;4914048;29;20384;-77
2022/03/19 04:53:32;;;;;;;35.43;27.23;;;;;;;-0.95;100.00;101559.00;4902316;29;20238;-77
2022/03/19 04:55:59;;;;;;;34.90;27.70;;;;;;;-0.92;100.00;101552.69;4909250;29;20278;-77
2022/03/19 04:58:26;;;;;;;35.77;26.77;;;;;;;-0.88;100.00;101555.00;4913908;29;20748;-77
2022/03/19 05:00:52;;;;;;;36.97;27.17;;;;;;;-0.84;100.00;101549.56;4915281;29;20580;-77
2022/03/19 05:03:19;;;;;;;35.83;25.77;;;;;;;-0.79;100.00;101550.94;4915146;29;20229;-77
2022/03/19 05:05:46;;;;;;;33.53;26.20;;;;;;;-0.74;100.00;101550.63;4902348;29;20230;-77
2022/03/19 05:08:13;;;;;;;36.50;26.43;;;;;;;-0.70;100.00;101555.59;4914841;29;20674;-76
2022/03/19 05:13:25;;;;;;;33.47;25.97;;;;;;;-0.60;100.00;101554.03;4913465;29;20242;-77
2022/03/19 05:15:52;;;;;;;35.60;26.37;;;;;;;-0.51;100.00;101555.22;4892675;29;20250;-77
2022/03/19 05:18:19;;;;;;;31.67;25.93;;;;;;;-0.45;100.00;101546.91;4911466;29;20245;-77
2022/03/19 05:20:46;;;;;;;34.63;26.17;;;;;;;-0.36;100.00;101543.66;4894181;29;20231;-77
2022/03/19 05:23:13;;;;;;;37.10;27.90;;;;;;;-0.31;100.00;101541.56;4910744;29;20233;-77
2022/03/19 05:25:40;;;;;;;38.17;27.73;;;;;;;-0.22;100.00;101535.66;4914949;29;20285;-77
2022/03/19 05:28:07;;;;;;;35.37;27.40;;;;;;;-0.19;100.00;101527.59;4908298;29;20238;-77
2022/03/19 05:30:52;;;;;;;30.83;25.17;;;;;;;-0.05;100.00;101524.81;4908593;29;20309;-78
2022/03/19 05:33:19;;;;;;;33.00;26.00;;;;;;;0.04;100.00;101530.41;4904745;29;20235;-77
2022/03/19 05:35:48;;;;;;;33.00;25.27;;;;;;;0.16;100.00;101540.94;4917741;29;20233;-77
2022/03/19 05:38:15;;;;;;;30.93;25.13;;;;;;;0.29;100.00;101535.66;4907604;29;20239;-77
2022/03/19 05:40:42;;;;;;;29.90;25.13;;;;;;;0.38;100.00;101538.50;4918248;29;20289;-77
2022/03/19 05:43:08;;;;;;;32.80;25.77;;;;;;;0.49;100.00;101534.25;4906106;29;20650;-77
2022/03/19 05:45:35;;;;;;;32.83;25.70;;;;;;;0.57;100.00;101538.03;4918545;29;20257;-77
2022/03/19 05:48:02;;;;;;;31.23;25.10;;;;;;;0.64;100.00;101544.56;4894105;29;20241;-76
2022/03/19 05:50:29;;;;;;;30.43;24.73;;;;;;;0.73;100.00;101546.56;4916950;29;20916;-77
2022/03/19 05:52:55;;;;;;;31.07;24.40;;;;;;;0.89;100.00;101533.06;4902753;29;20321;-76
2022/03/19 05:55:22;;;;;;;29.73;23.63;;;;;;;1.01;100.00;101541.91;4915321;29;20244;-78
2022/03/19 05:57:49;;;;;;;33.63;25.10;;;;;;;1.03;100.00;101545.25;4918387;29;20237;-77
2022/03/19 06:00:16;;;;;;;32.47;24.30;;;;;;;1.08;100.00;101546.63;4898514;29;20295;-76
2022/03/19 06:02:44;;;;;;;30.60;24.77;;;;;;;1.17;100.00;101545.09;4918468;29;20329;-77
2022/03/19 06:05:16;;;;;;;29.97;24.43;;;;;;;1.31;100.00;101545.75;4905420;29;20644;-77
2022/03/19 06:07:42;;;;;;;32.50;25.67;;;;;;;1.42;100.00;101544.97;4918335;29;20761;-77
2022/03/19 06:10:09;;;;;;;29.97;24.73;;;;;;;1.53;100.00;101546.81;4918092;29;20233;-76
2022/03/19 06:12:36;;;;;;;29.90;25.10;;;;;;;1.54;100.00;101546.69;4916155;29;20693;-76
2022/03/19 06:15:04;;;;;;;32.20;24.47;;;;;;;1.64;100.00;101545.03;4918254;29;20380;-77
2022/03/19 06:17:31;;;;;;;32.20;25.43;;;;;;;1.87;100.00;101545.13;4905157;29;20329;-76
2022/03/19 06:19:58;;;;;;;31.37;25.20;;;;;;;2.03;100.00;101545.59;4918419;29;20317;-77
2022/03/19 06:22:25;;;;;;;34.43;25.00;;;;;;;2.17;100.00;101545.38;4916673;29;20594;-77
2022/03/19 06:24:51;;;;;;;29.47;24.30;;;;;;;2.41;100.00;101547.91;4912603;29;20324;-77
2022/03/19 06:27:18;;;;;;;28.97;24.57;;;;;;;2.63;100.00;101551.38;4917892;29;20698;-77
2022/03/19 06:29:45;;;;;;;30.97;25.63;;;;;;;2.80;100.00;101546.56;4905042;29;20333;-77
2022/03/19 06:32:12;;;;;;;29.77;25.17;;;;;;;3.05;100.00;101549.75;4904342;29;20617;-77
2022/03/19 06:34:38;;;;;;;32.23;25.27;;;;;;;3.13;100.00;101545.66;4904897;29;20309;-78
2022/03/19 06:37:21;;;;;;;30.00;24.97;;;;;;;3.22;100.00;101539.59;4917789;29;20246;-77
2022/03/19 06:39:54;;;;;;;31.40;25.30;;;;;;;3.51;100.00;101538.00;4905318;29;20238;-76
2022/03/19 06:42:22;;;;;;;31.93;25.67;;;;;;;3.59;100.00;101537.38;4917267;29;20254;-77
2022/03/19 06:44:49;;;;;;;30.43;25.30;;;;;;;3.77;100.00;101541.97;4918061;29;20320;-77
2022/03/19 06:47:16;;;;;;;30.80;25.27;;;;;;;3.86;100.00;101532.41;4896212;29;20649;-77
2022/03/19 06:49:43;;;;;;;31.00;26.00;;;;;;;3.91;100.00;101528.38;4895704;29;20261;-77
2022/03/19 06:52:10;;;;;;;32.17;26.83;;;;;;;4.01;100.00;101540.88;4894573;29;20664;-77
2022/03/19 06:54:37;;;;;;;32.93;26.10;;;;;;;4.05;100.00;101535.16;4897766;29;20714;-76
2022/03/19 06:57:04;;;;;;;33.63;26.83;;;;;;;4.25;100.00;101538.72;4891785;29;20808;-77
2022/03/19 06:59:31;;;;;;;34.40;27.07;;;;;;;4.35;100.00;101545.78;4914484;29;20322;-77
2022/03/19 07:01:58;;;;;;;32.90;26.73;;;;;;;4.53;100.00;101534.50;4907666;29;20242;-77
2022/03/19 07:04:26;;;;;;;32.73;26.57;;;;;;;4.67;100.00;101540.28;4915300;29;20241;-77
2022/03/19 07:06:53;;;;;;;31.90;26.23;;;;;;;4.78;100.00;101536.69;4904496;29;20742;-77
2022/03/19 07:09:29;;;;;;;31.37;26.83;;;;;;;4.91;100.00;101539.94;4917239;29;20229;-77
2022/03/19 07:11:55;;;;;;;33.30;26.37;;;;;;;4.94;100.00;101541.50;4913193;29;20675;-76
2022/03/19 07:14:23;;;;;;;31.07;26.57;;;;;;;5.07;100.00;101534.94;4914775;29;20316;-77
2022/03/19 07:16:51;;;;;;;32.53;26.87;;;;;;;5.07;100.00;101532.28;4904599;29;20334;-77
2022/03/19 07:19:18;;;;;;;30.93;25.70;;;;;;;5.01;100.00;101539.97;4904167;29;20234;-77
2022/03/19 07:21:45;;;;;;;33.83;26.27;;;;;;;4.98;100.00;101538.44;4910529;29;20689;-77
2022/03/19 07:24:11;;;;;;;33.23;27.13;;;;;;;5.19;100.00;101533.81;4904787;29;20738;-77
2022/03/19 07:26:38;;;;;;;31.67;25.90;;;;;;;5.36;100.00;101534.97;4902171;29;20230;-77
2022/03/19 07:29:06;;;;;;;30.53;24.97;;;;;;;5.57;95.62;101526.84;4917317;29;20283;-76
2022/03/19 07:31:33;;;;;;;34.30;25.87;;;;;;;5.65;95.03;101526.97;4916609;29;20254;-77
2022/03/19 07:34:00;;;;;;;29.30;24.33;;;;;;;5.54;80.84;101529.78;4917265;29;20234;-77
2022/03/19 07:36:27;;;;;;;29.93;23.07;;;;;;;5.54;76.24;101527.13;4916476;29;20781;-76
2022/03/19 07:38:55;;;;;;;30.20;24.13;;;;;;;5.74;73.81;101518.97;4917161;29;20615;-76
2022/03/19 07:44:07;;;;;;;28.27;23.20;;;;;;;5.73;72.09;101522.63;4916526;29;20246;-76
2022/03/19 07:46:35;;;;;;;29.90;22.63;;;;;;;5.96;72.15;101523.19;4903424;29;20246;-77
2022/03/19 07:49:03;;;;;;;29.50;22.80;;;;;;;6.24;71.38;101523.22;4917247;29;20238;-76
2022/03/19 07:51:30;;;;;;;26.90;22.50;;;;;;;6.35;69.39;101518.53;4903011;29;20220;-77
2022/03/19 07:53:57;;;;;;;28.93;22.87;;;;;;;6.50;70.28;101524.22;4915827;29;20321;-77
2022/03/19 07:56:24;;;;;;;29.53;23.43;;;;;;;6.58;68.61;101525.16;4914825;29;20320;-77
2022/03/19 07:58:51;;;;;;;27.20;22.57;;;;;;;6.69;67.44;101532.13;4916204;29;20253;-77
2022/03/19 08:01:19;;;;;;;26.00;22.63;;;;;;;6.70;64.22;101520.50;4916256;29;20234;-76
2022/03/19 08:03:46;;;;;;;28.43;23.40;;;;;;;6.51;65.80;101520.59;4916178;29;20321;-77
2022/03/19 08:06:13;;;;;;;27.30;22.57;;;;;;;6.59;65.19;101518.84;4903919;29;20322;-76
2022/03/19 08:08:40;;;;;;;27.50;21.20;;;;;;;6.55;58.44;101517.47;4899659;29;20268;-77
2022/03/19 08:11:07;;;;;;;27.37;22.13;;;;;;;6.55;57.75;101512.16;4893909;29;20234;-77
2022/03/19 08:13:34;;;;;;;25.73;21.87;;;;;;;6.75;55.79;101514.72;4915244;29;20261;-77
2022/03/19 08:16:01;;;;;;;28.37;21.43;;;;;;;6.56;57.55;101518.31;4897244;29;20591;-75
2022/03/19 08:18:29;;;;;;;25.53;20.87;;;;;;;6.16;55.81;101510.63;4916133;29;20254;-77
2022/03/19 08:20:57;;;;;;;27.27;21.00;;;;;;;6.33;56.50;101507.22;4912636;29;20265;-77
2022/03/19 08:23:24;;;;;;;28.63;21.50;;;;;;;6.69;56.28;101508.16;4913770;29;20697;-77
2022/03/19 08:25:51;;;;;;;25.70;20.73;;;;;;;6.63;54.37;101503.41;4916164;29;20276;-77
2022/03/19 08:28:18;;;;;;;25.97;20.93;;;;;;;6.82;54.70;101497.13;4909251;29;20697;-76
2022/03/19 08:30:44;;;;;;;27.47;22.13;;;;;;;6.96;53.15;101500.13;4906884;29;20668;-76
2022/03/19 08:33:11;;;;;;;26.17;21.30;;;;;;;6.69;51.55;101500.16;4905019;29;20269;-78
2022/03/19 08:35:38;;;;;;;26.90;21.30;;;;;;;6.94;52.03;101498.59;4913774;29;20237;-77
2022/03/19 08:40:50;;;;;;;26.77;21.57;;;;;;;7.20;52.22;101493.34;4907561;29;21626;-77
2022/03/19 08:43:17;;;;;;;25.30;21.30;;;;;;;7.34;52.08;101492.81;4915682;29;20657;-77
2022/03/19 08:45:44;;;;;;;24.30;20.87;;;;;;;7.51;51.12;101491.97;4895813;29;20238;-76
2022/03/19 08:48:11;;;;;;;25.03;21.87;;;;;;;7.52;51.03;101493.63;4913746;29;20613;-75
2022/03/19 08:50:37;;;;;;;28.17;22.70;;;;;;;7.85;48.69;101487.53;4915250;29;20258;-77
2022/03/19 08:53:04;;;;;;;26.10;21.83;;;;;;;7.59;48.99;101484.03;4914530;29;20649;-75
2022/03/19 08:55:31;;;;;;;26.23;21.80;;;;;;;7.63;49.73;101488.06;4906939;29;20225;-75
2022/03/19 08:57:59;;;;;;;24.73;20.70;;;;;;;7.82;49.01;101479.00;4903716;29;20275;-74
2022/03/19 09:00:26;;;;;;;27.10;21.30;;;;;;;8.01;46.53;101480.63;4898404;29;20239;-76
2022/03/19 09:02:55;;;;;;;27.93;22.67;;;;;;;8.11;46.50;101481.38;4906052;29;20722;-75
2022/03/19 09:05:22;;;;;;;25.93;21.10;;;;;;;8.16;43.79;101479.06;4908326;29;20241;-75
2022/03/19 09:07:50;;;;;;;24.73;20.17;;;;;;;8.40;42.07;101482.69;4898023;29;20238;-74
2022/03/19 09:10:17;;;;;;;22.20;18.33;;;;;;;8.35;40.26;101479.66;4898145;29;20242;-74
2022/03/19 09:12:44;;;;;;;23.07;18.63;;;;;;;8.43;40.10;101472.69;4899850;29;20722;-75
2022/03/19 09:15:11;;;;;;;21.33;17.60;;;;;;;8.15;39.17;101475.53;4903880;29;20670;-74
2022/03/19 09:17:39;;;;;;;22.43;18.63;;;;;;;8.38;39.62;101475.84;4906610;29;20242;-74
2022/03/19 09:20:06;;;;;;;23.30;18.80;;;;;;;8.39;38.92;101474.84;4898261;29;20235;-76
2022/03/19 09:22:33;;;;;;;21.03;17.67;;;;;;;8.18;39.07;101469.03;4906433;29;20293;-77
2022/03/19 09:24:59;;;;;;;21.73;19.37;;;;;;;8.07;39.35;101461.31;4892784;29;20257;-77
2022/03/19 09:27:26;;;;;;;21.87;18.63;;;;;;;8.51;39.38;101454.84;4900956;29;20309;-75
2022/03/19 09:29:53;;;;;;;22.60;18.93;;;;;;;8.88;37.93;101454.44;4903956;29;20238;-75
2022/03/19 09:32:20;;;;;;;24.73;18.93;;;;;;;9.11;38.22;101457.31;4900417;29;20241;-76
2022/03/19 09:34:49;;;;;;;22.93;19.03;;;;;;;9.20;37.68;101448.28;4905825;29;20234;-77
2022/03/19 09:37:16;;;;;;;23.30;17.97;;;;;;;9.22;37.04;101449.81;4900837;29;20741;-76
2022/03/19 09:39:43;;;;;;;23.27;17.93;;;;;;;8.77;35.28;101450.25;4909988;29;20257;-76
2022/03/19 09:42:13;;;;;;;21.90;18.03;;;;;;;8.59;36.51;101444.19;4909205;29;20242;-76
2022/03/19 09:44:43;;;;;;;23.63;18.53;;;;;;;8.88;36.30;101454.44;4908132;29;20241;-76
2022/03/19 09:47:11;;;;;;;22.63;19.13;;;;;;;9.11;36.17;101447.47;4901908;29;20309;-74
2022/03/19 09:49:38;;;;;;;21.83;18.97;;;;;;;9.26;36.67;101445.81;4915203;29;20234;-76
2022/03/19 09:52:05;;;;;;;23.30;18.37;;;;;;;9.21;34.67;101436.59;4915227;29;20325;-73
2022/03/19 09:54:32;;;;;;;21.90;17.83;;;;;;;9.48;34.39;101441.59;4915838;29;20261;-76
2022/03/19 09:56:59;;;;;;;23.93;18.77;;;;;;;9.27;34.61;101442.13;4916307;29;20249;-77
2022/03/19 09:59:27;;;;;;;23.47;18.37;;;;;;;9.28;35.22;101441.09;4917917;29;20242;-77
2022/03/19 10:01:54;;;;;;;23.77;19.17;;;;;;;9.49;35.31;101443.28;4917143;29;20234;-77
2022/03/19 10:04:22;;;;;;;21.37;18.97;;;;;;;9.59;35.06;101441.25;4915366;29;20242;-77
2022/03/19 10:09:43;;;;;;;21.60;17.90;;;;;;;8.88;34.91;101451.78;4915482;29;20245;-75
2022/03/19 10:12:12;;;;;;;22.87;18.57;;;;;;;8.94;34.62;101439.59;4915646;29;20365;-77
2022/03/19 10:14:39;;;;;;;21.53;17.00;;;;;;;9.25;34.20;101440.59;4909133;29;20246;-77
2022/03/19 10:17:06;;;;;;;18.27;15.63;;;;;;;9.21;32.70;101439.28;4917905;29;20321;-77
2022/03/19 10:19:48;;;;;;;18.07;15.33;;;;;;;8.87;31.83;101441.22;4918358;29;20693;-78
2022/03/19 10:22:15;;;;;;;17.90;15.10;;;;;;;8.86;31.50;101443.09;4895030;29;20250;-75
2022/03/19 10:24:42;;;;;;;19.10;16.27;;;;;;;9.15;32.42;101434.59;4904967;29;20270;-75
2022/03/19 10:27:18;;;;;;;20.23;16.97;;;;;;;8.85;33.17;101436.06;4913607;29;20285;-75
2022/03/19 10:29:45;;;;;;;20.80;16.20;;;;;;;8.88;33.26;101437.56;4904036;29;20616;-76
2022/03/19 10:32:12;;;;;;;19.37;17.00;;;;;;;9.18;33.88;101436.94;4913873;29;20239;-78
2022/03/19 10:34:42;;;;;;;20.77;17.40;;;;;;;9.60;33.75;101434.06;4916386;29;20237;-79
2022/03/19 10:37:09;;;;;;;21.20;17.80;;;;;;;9.83;33.24;101427.00;4917685;29;20663;-79
2022/03/19 10:39:45;;;;;;;20.87;18.10;;;;;;;9.65;32.83;101429.91;4917134;29;20765;-78
2022/03/19 10:42:15;;;;;;;19.93;17.57;;;;;;;9.88;33.11;101432.69;4905957;29;20250;-79
2022/03/19 10:44:47;;;;;;;17.87;15.97;;;;;;;9.52;31.78;101423.34;4911109;29;20230;-78
2022/03/19 10:47:21;;;;;;;18.83;16.17;;;;;;;9.60;31.98;101421.53;4916465;29;20237;-76
2022/03/19 10:49:47;;;;;;;18.73;15.50;;;;;;;9.93;31.55;101416.94;4903924;29;20231;-79
2022/03/19 10:52:15;;;;;;;18.17;14.83;;;;;;;10.07;29.96;101415.38;4902301;29;20319;-78
2022/03/19 10:54:44;;;;;;;17.97;15.03;;;;;;;10.19;30.50;101408.66;4902919;29;20231;-78
2022/03/19 10:57:10;;;;;;;18.17;15.47;;;;;;;10.20;29.84;101401.47;4914014;29;20325;-79
2022/03/19 10:59:37;;;;;;;19.93;15.10;;;;;;;10.34;29.80;101398.06;4914017;29;20246;-79
2022/03/19 11:02:04;;;;;;;18.00;16.10;;;;;;;10.50;30.15;101397.94;4917429;29;20614;-79
2022/03/19 11:04:32;;;;;;;19.20;16.53;;;;;;;10.08;30.84;101403.63;4917001;29;20648;-79
2022/03/19 11:07:00;;;;;;;19.90;16.33;;;;;;;10.45;31.01;101392.31;4917446;29;20241;-78
2022/03/19 11:09:29;;;;;;;19.47;17.37;;;;;;;10.75;30.46;101390.59;4904643;29;20289;-79
2022/03/19 11:11:57;;;;;;;19.93;17.47;;;;;;;10.56;30.99;101391.88;4901908;29;20261;-79
2022/03/19 11:14:30;;;;;;;20.77;16.87;;;;;;;10.17;31.48;101378.56;4906246;29;20314;-79
2022/03/19 11:17:32;;;;;;;21.33;16.47;;;;;;;10.39;31.28;101376.94;4915444;29;20303;-77
2022/03/19 11:20:02;;;;;;;21.83;16.80;;;;;;;10.61;30.84;101381.47;4901760;29;20640;-79
2022/03/19 11:22:30;;;;;;;19.07;16.53;;;;;;;10.78;30.79;101379.53;4908695;29;20289;-80
2022/03/19 11:25:20;;;;;;;19.30;16.43;;;;;;;10.34;30.64;101369.41;4909290;29;20669;-79
2022/03/19 11:27:50;;;;;;;18.97;16.93;;;;;;;10.66;31.08;101364.84;4899800;29;20245;-79